This is the latest recevied weather packets stored in our database for station/object OE-11399. If no packets are shown the sender has not sent any weather packets the latest 10 day(s).
| Time | Temp. | Humidity | Pressure | Rain* | Wind** | Luminosity | Snow |
|---|---|---|---|---|---|---|---|
| 1787982927 | 12.78° C | 90% | 853.3 hPa | 0 mm | - | 15 W/m² | - |
| 1787982099 | 12.22° C | 90% | 853.4 hPa | 0 mm | - | 15 W/m² | - |
| 1787981727 | 12.22° C | 91% | 853.3 hPa | 0 mm | - | 0 W/m² | - |
| 1787981126 | 12.22° C | 90% | 853.2 hPa | 0 mm | - | 22 W/m² | - |
| 1787980299 | 12.22° C | 91% | 853.1 hPa | 0 mm | - | 22 W/m² | - |
| 1787979926 | 12.22° C | 91% | 853.1 hPa | 0 mm | - | 7 W/m² | - |
| 1787979327 | 12.22° C | 92% | 853 hPa | 0 mm | - | 0 W/m² | - |
| 1787978500 | 12.22° C | 92% | 853.1 hPa | 0 mm | - | 0 W/m² | - |
| 1787978126 | 12.22° C | 91% | 853.2 hPa | 0 mm | - | 0 W/m² | - |
| 1787977527 | 12.22° C | 89% | 853.3 hPa | 0 mm | - | 0 W/m² | - |
| 1787976700 | 12.22° C | 88% | 853.3 hPa | 0 mm | - | 0 W/m² | - |
| 1787976327 | 12.78° C | 88% | 853.4 hPa | 0 mm | - | 0 W/m² | - |
| 1787975727 | 12.78° C | 88% | 853.4 hPa | 0 mm | - | 0 W/m² | - |
| 1787975127 | 12.78° C | 87% | 853.5 hPa | 0.25 mm | - | 0 W/m² | - |
| 1787974526 | 12.78° C | 88% | 853.3 hPa | 0.76 mm | - | 0 W/m² | - |
| 1787973927 | 12.78° C | 89% | 853.4 hPa | 1.02 mm | - | 0 W/m² | - |
| 1787973099 | 12.78° C | 88% | 853.4 hPa | 2.29 mm | - | 0 W/m² | - |
| 1787972727 | 12.78° C | 87% | 853.4 hPa | 2.54 mm | - | 0 W/m² | - |
| 1787972127 | 12.78° C | 86% | 853.3 hPa | 2.54 mm | - | 0 W/m² | - |
| 1787971300 | 12.78° C | 87% | 853.7 hPa | 2.54 mm | - | 0 W/m² | - |
| 1787970927 | 12.78° C | 85% | 853.7 hPa | 2.29 mm | - | 0 W/m² | - |
| 1787970327 | 12.78° C | 83% | 853.4 hPa | 1.78 mm | - | 0 W/m² | - |
| 1787969499 | 13.89° C | 76% | 853.1 hPa | 1.52 mm | - | 0 W/m² | - |
| 1787969126 | 15° C | 66% | 853.7 hPa | 0 mm | - | 0 W/m² | - |
| 1787968527 | 15.56° C | 59% | 853.7 hPa | 0 mm | - | 0 W/m² | - |
* Rain latest hour (hover to see other rain measurements)
** Current wind speed in m/s (hover to see current wind gust speed)